Time;durP1;ratioP1;P1;durP2;ratioP2;P2;SDS_P1;SDS_P2;PMS_P1;PMS_P2;Temp;Humidity;BMP_temperature;BMP_pressure;BME280_temperature;BME280_humidity;BME280_pressure;Samples;Min_cycle;Max_cycle;Signal;HPM_P1;HPM_P2
2023/04/25 00:09:08;;;;;;;6.80;4.70;;;;;;;10.42;81.07;98321.42;436666;1250;140002;-60
2023/04/25 00:19:14;;;;;;;7.50;5.40;;;;;;;10.47;81.67;98309.70;437084;1254;140128;-61
2023/04/25 00:29:20;;;;;;;6.70;5.70;;;;;;;10.45;81.98;98304.21;436834;1254;139441;-61
2023/04/25 00:39:26;;;;;;;7.50;5.00;;;;;;;10.30;82.56;98311.54;436615;1254;139893;-61
2023/04/25 00:49:31;;;;;;;5.10;4.60;;;;;;;10.08;83.03;98317.57;436463;1254;140649;-60
2023/04/25 00:59:39;;;;;;;6.20;5.10;;;;;;;9.98;83.57;98316.30;436666;1254;140227;-60
2023/04/25 01:09:44;;;;;;;6.00;4.80;;;;;;;9.83;83.60;98311.34;436737;1251;139625;-60
2023/04/25 01:19:51;;;;;;;5.70;4.40;;;;;;;9.67;84.10;98315.47;436672;1251;141249;-61
2023/04/25 01:29:57;;;;;;;5.70;4.90;;;;;;;9.52;85.15;98309.17;436781;1250;139243;-61
2023/04/25 01:40:05;;;;;;;4.40;4.00;;;;;;;9.47;86.08;98307.42;437290;1251;139866;-60
2023/04/25 01:50:11;;;;;;;;;;;;;;;9.44;86.60;98313.42;440209;1250;140407;-61
2023/04/25 02:00:17;;;;;;;5.50;4.70;;;;;;;9.34;87.24;98321.38;437285;1251;125661;-61
2023/04/25 02:10:23;;;;;;;5.20;4.70;;;;;;;9.27;88.08;98315.80;436826;1254;140358;-60
2023/04/25 02:20:30;;;;;;;6.90;5.40;;;;;;;9.26;88.66;98313.50;437001;1254;139465;-60
2023/04/25 02:30:36;;;;;;;7.30;6.60;;;;;;;9.30;88.94;98318.58;436864;1254;138782;-60
2023/04/25 02:40:42;;;;;;;8.10;5.80;;;;;;;9.39;89.36;98319.25;436548;1255;139388;-64
2023/04/25 02:50:47;;;;;;;6.60;5.90;;;;;;;9.50;89.45;98316.84;436725;1255;140002;-66
2023/04/25 03:00:53;;;;;;;6.50;5.90;;;;;;;9.56;88.76;98320.52;437233;1251;139428;-67
2023/04/25 03:10:59;;;;;;;6.00;5.00;;;;;;;9.50;88.19;98322.38;436973;1255;139312;-65
2023/04/25 03:21:05;;;;;;;4.70;4.30;;;;;;;9.37;87.51;98328.45;436756;1251;140409;-64
2023/04/25 03:31:11;;;;;;;5.70;3.80;;;;;;;9.19;86.58;98334.76;436852;1250;139348;-65
2023/04/25 03:41:16;;;;;;;4.00;3.10;;;;;;;9.02;85.75;98329.98;436668;1251;140452;-66
2023/04/25 03:51:22;;;;;;;3.70;3.40;;;;;;;8.79;85.44;98333.84;436546;1251;139987;-66
2023/04/25 04:01:29;;;;;;;4.20;3.50;;;;;;;8.64;85.67;98338.63;437058;1255;139388;-66
2023/04/25 04:11:36;;;;;;;3.80;2.90;;;;;;;8.64;85.66;98343.45;436711;1256;140547;-65
2023/04/25 04:21:42;;;;;;;3.20;2.10;;;;;;;8.59;84.92;98346.54;437166;1251;140377;-67
2023/04/25 04:31:48;;;;;;;1.70;1.60;;;;;;;8.72;83.78;98356.52;436722;1251;140158;-66
2023/04/25 04:41:54;;;;;;;1.80;1.60;;;;;;;8.83;82.30;98366.85;436965;1254;139250;-65
2023/04/25 04:52:00;;;;;;;2.00;1.10;;;;;;;8.81;80.56;98367.84;436591;1253;140666;-64
2023/04/25 05:02:06;;;;;;;2.00;1.80;;;;;;;8.85;78.95;98372.30;436657;1254;140983;-65
2023/04/25 05:12:12;;;;;;;2.40;1.50;;;;;;;9.04;77.48;98379.89;436823;1251;140582;-66
2023/04/25 05:22:18;;;;;;;1.40;1.30;;;;;;;9.59;75.61;98389.15;436975;1250;140649;-66
2023/04/25 05:32:24;;;;;;;1.60;1.50;;;;;;;9.70;74.61;98388.66;436433;1256;140435;-65
2023/04/25 05:42:30;;;;;;;2.20;1.60;;;;;;;10.29;73.86;98388.93;440658;1251;138856;-64
2023/04/25 05:52:36;;;;;;;1.40;1.30;;;;;;;10.90;72.21;98395.16;436229;1250;138956;-66
2023/04/25 06:02:43;;;;;;;2.50;1.40;;;;;;;10.69;70.53;98400.27;436771;1256;140944;-65
2023/04/25 06:12:49;;;;;;;2.20;1.10;;;;;;;10.15;69.43;98400.04;436885;1250;140479;-65
2023/04/25 06:22:55;;;;;;;1.80;1.40;;;;;;;10.03;69.01;98408.15;437164;1255;139983;-66
2023/04/25 06:33:01;;;;;;;2.40;2.20;;;;;;;10.15;68.10;98404.48;437044;1255;139809;-65
2023/04/25 06:43:07;;;;;;;3.60;1.60;;;;;;;10.62;67.18;98416.58;437025;1254;139910;-65
2023/04/25 06:53:12;;;;;;;4.40;1.80;;;;;;;10.52;65.86;98415.69;437073;1254;140457;-69
2023/04/25 07:03:18;;;;;;;3.50;2.20;;;;;;;10.35;65.48;98415.95;437081;1255;139551;-65
2023/04/25 07:13:24;;;;;;;2.80;2.20;;;;;;;10.29;65.52;98423.79;436847;1256;383298;-66
2023/04/25 07:23:31;;;;;;;4.50;2.70;;;;;;;10.93;65.00;98423.82;437321;1254;139466;-65
2023/04/25 07:33:37;;;;;;;3.30;2.50;;;;;;;11.21;63.37;98417.45;437137;1251;139747;-64
2023/04/25 07:43:42;;;;;;;2.60;2.40;;;;;;;11.12;63.27;98419.98;437158;1255;138869;-65
2023/04/25 07:53:48;;;;;;;1.80;1.70;;;;;;;12.32;62.39;98417.36;437573;1252;140124;-66
2023/04/25 08:03:55;;;;;;;3.60;2.30;;;;;;;13.43;59.33;98417.03;436841;1254;139983;-65
2023/04/25 08:14:01;;;;;;;2.80;2.60;;;;;;;13.73;58.15;98419.90;436887;1254;139470;-64
2023/04/25 08:24:08;;;;;;;4.90;2.70;;;;;;;13.29;57.56;98428.55;436929;1257;138875;-64
2023/04/25 08:34:14;;;;;;;2.60;2.40;;;;;;;13.30;57.49;98426.66;437089;1254;139303;-65
2023/04/25 08:44:20;;;;;;;3.80;2.30;;;;;;;12.69;57.03;98425.94;436762;1251;138551;-63
2023/04/25 08:54:30;;;;;;;3.10;1.90;;;;;;;12.89;57.11;98433.06;436610;1251;138911;-65
2023/04/25 09:04:41;;;;;;;2.70;1.90;;;;;;;12.83;55.84;98442.89;436700;1254;138680;-65
2023/04/25 09:15:05;;;;;;;4.20;2.30;;;;;;;12.83;56.19;98447.68;437105;1251;139942;-64
2023/04/25 09:25:15;;;;;;;1.80;1.60;;;;;;;13.00;55.59;98456.62;437418;1254;138478;-64
2023/04/25 09:35:27;;;;;;;12.60;3.70;;;;;;;12.79;55.27;98459.96;437297;1254;138297;-65
2023/04/25 09:45:41;;;;;;;6.40;3.40;;;;;;;12.56;55.67;98465.20;437586;1254;138863;-66
2023/04/25 09:55:48;;;;;;;3.30;3.00;;;;;;;12.96;55.65;98469.13;438208;1251;138596;-66
2023/04/25 10:05:54;;;;;;;4.00;3.20;;;;;;;12.99;55.51;98471.17;437025;1254;138469;-67
2023/04/25 10:16:05;;;;;;;3.60;3.00;;;;;;;13.63;54.79;98468.61;437063;1251;138211;-65
2023/04/25 10:26:13;;;;;;;3.60;2.60;;;;;;;13.95;53.14;98464.70;436853;1251;139964;-64
2023/04/25 10:36:22;;;;;;;3.90;2.80;;;;;;;13.21;52.63;98462.63;437311;1251;138280;-66
2023/04/25 10:46:30;;;;;;;3.70;3.10;;;;;;;13.14;53.29;98464.04;436775;1254;139493;-66
2023/04/25 10:56:40;;;;;;;9.70;5.50;;;;;;;12.58;53.44;98464.88;436980;1254;140709;-65
2023/04/25 11:07:01;;;;;;;4.70;4.20;;;;;;;12.61;54.01;98461.56;437095;1251;139839;-66
2023/04/25 11:17:12;;;;;;;5.20;3.50;;;;;;;12.87;53.98;98464.55;436747;1251;139682;-65
2023/04/25 11:27:18;;;;;;;4.50;3.30;;;;;;;12.40;53.59;98462.71;437034;1254;139282;-65
2023/04/25 11:37:24;;;;;;;2.70;2.50;;;;;;;12.28;54.00;98470.64;436942;1252;139747;-65
2023/04/25 11:47:34;;;;;;;3.00;2.80;;;;;;;12.08;54.36;98477.34;436573;1254;139529;-65
2023/04/25 11:57:42;;;;;;;5.90;2.30;;;;;;;11.89;53.98;98477.33;436936;1251;138283;-67
2023/04/25 12:07:48;;;;;;;4.50;3.10;;;;;;;11.83;54.17;98474.20;436676;1251;139869;-66
2023/04/25 12:17:55;;;;;;;3.30;2.20;;;;;;;12.07;54.15;98470.11;436664;1251;138786;-64
2023/04/25 12:28:18;;;;;;;4.60;2.50;;;;;;;11.87;53.52;98466.87;436622;1254;138730;-65
2023/04/25 12:38:25;;;;;;;2.90;2.50;;;;;;;12.00;53.41;98464.49;436667;1251;138820;-64
2023/04/25 12:48:31;;;;;;;6.10;2.90;;;;;;;12.70;53.50;98473.22;436355;1251;139485;-65
2023/04/25 12:58:37;;;;;;;1.70;1.40;;;;;;;12.20;52.91;98466.76;436585;1254;138972;-65
2023/04/25 13:08:43;;;;;;;4.00;2.00;;;;;;;11.69;52.72;98467.02;436781;1251;138210;-66
2023/04/25 13:18:49;;;;;;;4.10;2.30;;;;;;;11.64;53.03;98464.02;436979;1251;139143;-66
2023/04/25 13:28:54;;;;;;;5.00;2.50;;;;;;;11.88;53.14;98468.55;436885;1254;139251;-65
2023/04/25 13:39:00;;;;;;;1.60;1.50;;;;;;;11.95;52.76;98462.96;436926;1254;139832;-67
2023/04/25 13:49:06;;;;;;;5.60;2.40;;;;;;;12.01;52.80;98465.98;436887;1251;139259;-66
2023/04/25 13:59:17;;;;;;;2.10;1.70;;;;;;;11.60;52.72;98473.66;437022;1254;139294;-66
2023/04/25 14:09:25;;;;;;;2.30;2.00;;;;;;;11.42;53.15;98478.95;436646;1251;139764;-65
2023/04/25 14:19:31;;;;;;;3.30;1.70;;;;;;;11.39;53.02;98477.06;436195;1254;138373;-64
2023/04/25 14:29:37;;;;;;;3.30;1.30;;;;;;;11.37;52.51;98482.13;436767;1254;139615;-66
2023/04/25 14:39:43;;;;;;;3.40;2.10;;;;;;;11.01;52.60;98484.25;436800;1251;140058;-66
2023/04/25 14:49:53;;;;;;;2.10;1.90;;;;;;;10.70;52.61;98492.94;436818;1254;139355;-65
2023/04/25 15:00:00;;;;;;;3.10;1.40;;;;;;;10.57;52.40;98503.27;436893;1251;138351;-66
2023/04/25 15:10:13;;;;;;;2.90;1.10;;;;;;;10.53;52.27;98507.45;437105;1251;138845;-65
2023/04/25 15:20:19;;;;;;;2.70;2.30;;;;;;;10.51;52.12;98502.16;437241;1250;139994;-65
2023/04/25 15:30:25;;;;;;;2.00;1.80;;;;;;;10.40;52.64;98508.60;436930;1250;140892;-66
2023/04/25 15:40:32;;;;;;;6.00;2.10;;;;;;;10.31;52.95;98508.13;436716;1254;140799;-66
2023/04/25 15:50:37;;;;;;;2.70;2.20;;;;;;;10.27;53.47;98507.70;436516;1254;138558;-63
2023/04/25 16:00:43;;;;;;;2.70;2.30;;;;;;;10.22;53.88;98510.37;436597;1254;138519;-66
2023/04/25 16:10:49;;;;;;;3.90;2.60;;;;;;;10.12;54.04;98503.98;436331;1253;138836;-65
2023/04/25 16:20:55;;;;;;;4.40;2.40;;;;;;;10.01;54.47;98508.23;436612;1251;140541;-64
2023/04/25 16:31:01;;;;;;;3.00;2.20;;;;;;;9.86;54.47;98512.35;436441;1250;138639;-65
2023/04/25 16:41:08;;;;;;;4.20;2.50;;;;;;;9.76;54.68;98516.45;436716;1250;138761;-65
2023/04/25 16:51:14;;;;;;;3.60;2.90;;;;;;;9.69;54.74;98525.70;436786;1254;139668;-66
2023/04/25 17:01:20;;;;;;;5.30;2.40;;;;;;;9.54;55.18;98524.39;436711;1250;140157;-65
2023/04/25 17:11:26;;;;;;;4.60;2.10;;;;;;;9.46;55.72;98532.84;436926;1251;139367;-65
2023/04/25 17:21:32;;;;;;;5.50;2.80;;;;;;;9.40;56.17;98542.88;436672;1251;139077;-65
2023/04/25 17:31:37;;;;;;;5.30;2.80;;;;;;;9.33;56.62;98544.14;436349;1251;139870;-64
2023/04/25 17:41:43;;;;;;;3.30;2.30;;;;;;;9.21;57.23;98546.24;436259;1254;140419;-65
2023/04/25 17:51:49;;;;;;;4.40;3.20;;;;;;;9.10;57.66;98558.05;436682;1251;138915;-65
2023/04/25 18:01:57;;;;;;;3.40;2.30;;;;;;;9.02;58.20;98562.11;436852;1254;139490;-65
2023/04/25 18:12:03;;;;;;;4.70;3.20;;;;;;;8.95;58.79;98572.95;436841;1254;139817;-65
2023/04/25 18:22:11;;;;;;;3.40;3.10;;;;;;;8.93;59.39;98587.39;436537;1251;139263;-65
2023/04/25 18:32:16;;;;;;;5.90;3.70;;;;;;;9.01;59.88;98603.95;436642;1254;139870;-65
2023/04/25 18:42:22;;;;;;;6.80;4.50;;;;;;;8.99;60.07;98613.84;437065;1250;138620;-66
2023/04/25 18:52:28;;;;;;;5.20;3.70;;;;;;;8.94;60.54;98636.16;436482;1251;140160;-65
2023/04/25 19:02:35;;;;;;;4.30;3.80;;;;;;;8.93;61.36;98650.59;437176;1250;138538;-65
2023/04/25 19:12:41;;;;;;;5.80;4.40;;;;;;;8.75;63.18;98677.31;436933;1254;139805;-66
2023/04/25 19:22:48;;;;;;;4.70;4.30;;;;;;;8.37;66.58;98693.73;436475;1250;140496;-66
2023/04/25 19:32:55;;;;;;;4.40;3.80;;;;;;;8.06;68.55;98693.39;436272;1251;139404;-64
2023/04/25 19:43:01;;;;;;;4.70;3.20;;;;;;;7.85;69.48;98699.64;437064;1254;139588;-66
2023/04/25 19:53:08;;;;;;;4.90;3.20;;;;;;;7.70;69.89;98707.94;435870;1250;138855;-66
2023/04/25 20:03:15;;;;;;;4.80;3.00;;;;;;;7.62;69.91;98711.12;439279;1251;139170;-65
2023/04/25 20:13:21;;;;;;;4.10;3.20;;;;;;;7.55;70.17;98719.36;436573;1253;139064;-65
2023/04/25 20:23:27;;;;;;;5.90;3.30;;;;;;;7.48;70.34;98728.05;436657;1251;139360;-67
2023/04/25 20:33:34;;;;;;;6.60;3.40;;;;;;;7.40;70.59;98729.92;436546;1253;138687;-67
2023/04/25 20:43:41;;;;;;;5.20;3.90;;;;;;;7.33;70.95;98733.50;436906;1250;140852;-67
2023/04/25 20:53:47;;;;;;;6.70;3.50;;;;;;;7.30;71.19;98737.88;437282;1251;140776;-68
2023/04/25 21:03:53;;;;;;;7.90;4.10;;;;;;;7.31;70.95;98744.80;437032;1254;139837;-68
2023/04/25 21:14:00;;;;;;;5.80;3.70;;;;;;;7.31;70.94;98752.96;436772;1251;138960;-67
2023/04/25 21:24:08;;;;;;;9.10;3.90;;;;;;;7.31;70.63;98752.96;437005;1251;140512;-66
2023/04/25 21:34:14;;;;;;;5.60;4.80;;;;;;;7.27;70.30;98758.09;436561;1254;138627;-67
2023/04/25 21:44:20;;;;;;;7.00;3.60;;;;;;;7.23;70.07;98763.23;436692;1250;140290;-66
2023/04/25 21:54:26;;;;;;;7.90;3.40;;;;;;;7.20;69.55;98763.25;436781;1253;140101;-67
2023/04/25 22:04:32;;;;;;;4.50;3.10;;;;;;;7.12;67.43;98765.46;436830;1250;139137;-66
2023/04/25 22:14:40;;;;;;;7.70;2.60;;;;;;;7.05;65.77;98772.54;436599;1251;139182;-67
2023/04/25 22:24:48;;;;;;;5.50;2.40;;;;;;;6.97;64.56;98779.77;436695;1251;139073;-66
2023/04/25 22:34:54;;;;;;;5.30;2.30;;;;;;;6.86;63.65;98788.97;436373;1255;139845;-67
2023/04/25 22:45:00;;;;;;;6.50;3.20;;;;;;;6.78;62.62;98799.41;436247;1250;140565;-67
2023/04/25 22:55:09;;;;;;;8.10;2.70;;;;;;;6.68;62.00;98807.16;436923;1255;138997;-67
2023/04/25 23:05:15;;;;;;;5.80;2.90;;;;;;;6.45;61.70;98802.21;436768;1251;138651;-66
2023/04/25 23:15:21;;;;;;;5.10;2.80;;;;;;;6.06;61.55;98808.98;436776;1250;138375;-64
2023/04/25 23:25:27;;;;;;;7.90;2.60;;;;;;;5.73;61.32;98815.15;436806;1254;138642;-65
2023/04/25 23:35:36;;;;;;;8.20;2.70;;;;;;;5.36;61.29;98818.61;436550;1250;138850;-66
2023/04/25 23:45:42;;;;;;;5.10;2.60;;;;;;;4.96;61.67;98824.36;436631;1254;138884;-66
2023/04/25 23:55:48;;;;;;;6.40;2.40;;;;;;;4.69;62.19;98824.89;437008;1251;138811;-67
